Time;durP1;ratioP1;P1;durP2;ratioP2;P2;SDS_P1;SDS_P2;PMS_P1;PMS_P2;Temp;Humidity;BMP_temperature;BMP_pressure;BME280_temperature;BME280_humidity;BME280_pressure;Samples;Min_cycle;Max_cycle;Signal;HPM_P1;HPM_P2
2023/01/20 00:01:11;;;;;;;4.32;2.35;;;-0.60;99.90;;;;;;5006207;28;20473;-70
2023/01/20 00:03:38;;;;;;;3.33;2.20;;;-0.10;99.90;;;;;;5022978;28;20467;-70
2023/01/20 00:06:03;;;;;;;4.28;2.65;;;-0.10;99.90;;;;;;5041066;28;20602;-70
2023/01/20 00:08:29;;;;;;;3.83;3.13;;;-0.30;99.90;;;;;;5039965;28;20525;-70
2023/01/20 00:10:55;;;;;;;3.90;3.17;;;-0.10;99.90;;;;;;5008071;28;20475;-70
2023/01/20 00:13:21;;;;;;;5.07;3.90;;;0.10;99.90;;;;;;5032973;28;20482;-70
2023/01/20 00:15:47;;;;;;;6.97;4.20;;;-0.30;99.90;;;;;;5007370;28;20417;-69
2023/01/20 00:18:13;;;;;;;5.97;4.40;;;0.10;99.90;;;;;;5008024;28;20432;-70
2023/01/20 00:20:39;;;;;;;4.80;4.30;;;0.30;99.90;;;;;;5009701;28;20440;-70
2023/01/20 00:23:05;;;;;;;9.73;6.50;;;-0.40;99.90;;;;;;5023199;28;21009;-70
2023/01/20 00:25:30;;;;;;;11.23;8.75;;;-0.10;99.90;;;;;;4996811;28;20787;-70
2023/01/20 00:27:56;;;;;;;11.15;8.38;;;0.40;99.90;;;;;;5011874;28;20443;-69
2023/01/20 00:30:22;;;;;;;12.70;8.93;;;0.80;99.90;;;;;;4993276;28;20433;-69
2023/01/20 00:32:47;;;;;;;11.37;8.43;;;0.30;99.90;;;;;;5014276;28;20438;-70
2023/01/20 00:35:13;;;;;;;10.07;8.33;;;0.00;99.90;;;;;;4989131;28;20482;-69
2023/01/20 00:37:39;;;;;;;10.77;8.73;;;0.10;99.90;;;;;;5005780;28;20498;-69
2023/01/20 00:40:05;;;;;;;12.13;8.80;;;0.40;99.90;;;;;;5005023;28;20433;-70
2023/01/20 00:42:31;;;;;;;9.48;8.13;;;-0.10;99.90;;;;;;5004481;28;20440;-70
2023/01/20 00:44:57;;;;;;;9.97;8.63;;;-0.20;99.90;;;;;;5017046;28;20483;-70
2023/01/20 00:47:23;;;;;;;9.75;8.52;;;0.00;99.90;;;;;;5001611;28;20428;-69
2023/01/20 00:49:49;;;;;;;11.80;8.73;;;-0.20;99.90;;;;;;5004546;28;20942;-70
2023/01/20 00:52:15;;;;;;;9.30;8.00;;;-0.40;99.90;;;;;;5001860;28;20421;-69
2023/01/20 00:54:40;;;;;;;11.40;7.57;;;-0.30;99.90;;;;;;5006288;28;20886;-70
2023/01/20 00:57:06;;;;;;;11.63;9.10;;;0.10;99.90;;;;;;5017356;28;20429;-69
2023/01/20 00:59:32;;;;;;;11.60;8.38;;;-0.60;99.90;;;;;;5003048;28;20412;-70
2023/01/20 01:01:57;;;;;;;10.98;9.27;;;0.00;99.90;;;;;;5002610;28;20433;-70
2023/01/20 01:04:23;;;;;;;14.20;9.88;;;0.00;99.90;;;;;;5006635;28;20523;-70
2023/01/20 01:06:49;;;;;;;11.50;9.60;;;-0.60;99.90;;;;;;5019102;28;20434;-70
2023/01/20 01:09:15;;;;;;;13.63;10.68;;;-0.30;99.90;;;;;;5024675;28;20436;-70
2023/01/20 01:11:41;;;;;;;11.88;9.75;;;-0.10;99.90;;;;;;5020432;28;20448;-70
2023/01/20 01:14:06;;;;;;;13.40;10.50;;;-0.80;99.90;;;;;;5006649;28;20531;-70
2023/01/20 01:16:32;;;;;;;11.83;9.97;;;-0.70;99.90;;;;;;5007833;28;20528;-69
2023/01/20 01:18:58;;;;;;;13.30;11.03;;;-0.40;99.90;;;;;;4999622;28;20854;-69
2023/01/20 01:21:23;;;;;;;13.02;11.15;;;-0.10;99.90;;;;;;5004374;28;20428;-69
2023/01/20 01:23:51;;;;;;;12.98;10.90;;;-0.10;99.90;;;;;;5006941;28;20412;-69
2023/01/20 01:26:17;;;;;;;13.10;10.63;;;-0.50;99.90;;;;;;5001672;28;20439;-69
2023/01/20 01:28:42;;;;;;;13.07;11.37;;;-0.70;99.90;;;;;;5005477;28;20424;-70
2023/01/20 01:31:09;;;;;;;15.17;11.43;;;-0.40;99.90;;;;;;5002125;28;20910;-69
2023/01/20 01:33:35;;;;;;;12.20;10.38;;;-0.80;99.90;;;;;;5004569;28;20486;-71
2023/01/20 01:36:02;;;;;;;14.43;11.13;;;0.10;99.90;;;;;;5003001;28;20788;-70
2023/01/20 01:38:28;;;;;;;13.18;11.15;;;-0.40;99.90;;;;;;5033727;28;20433;-70
2023/01/20 01:40:55;;;;;;;13.85;11.13;;;-0.80;99.90;;;;;;4999089;28;20442;-70
2023/01/20 01:43:28;;;;;;;16.30;12.35;;;-0.30;99.90;;;;;;5001730;28;20437;-69
2023/01/20 01:45:54;;;;;;;16.23;11.93;;;-0.20;99.90;;;;;;5014921;28;20532;-70
2023/01/20 01:48:24;;;;;;;13.70;10.65;;;-0.50;99.90;;;;;;5004699;28;20460;-70
2023/01/20 01:50:55;;;;;;;14.10;10.55;;;-0.30;99.90;;;;;;5003756;28;20471;-69
2023/01/20 01:53:21;;;;;;;13.82;11.07;;;-1.00;99.90;;;;;;5004595;28;20529;-70
2023/01/20 01:55:55;;;;;;;13.00;10.32;;;-0.60;99.90;;;;;;4993457;28;20477;-70
2023/01/20 01:58:25;;;;;;;15.13;11.05;;;-0.40;99.90;;;;;;5003613;28;20487;-70
2023/01/20 02:00:51;;;;;;;12.32;9.80;;;-0.80;99.90;;;;;;5000710;28;20486;-70
2023/01/20 02:03:18;;;;;;;11.80;9.15;;;-0.50;99.90;;;;;;5005655;28;20428;-70
2023/01/20 02:05:45;;;;;;;13.27;9.77;;;-0.90;99.90;;;;;;5003803;28;20831;-69
2023/01/20 02:08:10;;;;;;;11.77;9.43;;;0.30;99.90;;;;;;5005886;28;20483;-70
2023/01/20 02:10:36;;;;;;;12.82;9.48;;;-0.80;99.90;;;;;;5085119;23;20430;-74
2023/01/20 02:13:03;;;;;;;11.33;9.43;;;-1.00;99.90;;;;;;5016753;28;20518;-75
2023/01/20 02:15:50;;;;;;;12.30;9.63;;;-0.80;99.90;;;;;;5021323;28;20461;-74
2023/01/20 02:18:30;;;;;;;11.82;10.10;;;-0.80;99.90;;;;;;5026589;28;20431;-74
2023/01/20 02:21:25;;;;;;;11.93;10.05;;;-1.00;99.90;;;;;;5014425;28;20922;-74
2023/01/20 02:24:25;;;;;;;12.63;10.60;;;-0.30;99.90;;;;;;5011883;28;20426;-75
2023/01/20 02:26:57;;;;;;;13.93;10.57;;;-0.90;99.90;;;;;;5013448;28;20516;-74
2023/01/20 02:30:00;;;;;;;15.88;11.98;;;-0.90;99.90;;;;;;5028526;28;20492;-74
2023/01/20 02:32:47;;;;;;;11.98;10.52;;;-0.60;99.90;;;;;;5025051;28;20973;-75
2023/01/20 02:35:26;;;;;;;15.20;11.17;;;-1.00;99.90;;;;;;5028565;28;20509;-73
2023/01/20 02:38:00;;;;;;;16.52;12.38;;;-0.90;99.90;;;;;;5029462;28;20495;-74
2023/01/20 02:40:48;;;;;;;16.45;12.00;;;-0.30;99.90;;;;;;5028808;28;20495;-75
2023/01/20 02:43:41;;;;;;;14.15;11.75;;;-0.90;99.90;;;;;;5025506;28;20538;-75
2023/01/20 02:46:10;;;;;;;19.55;13.18;;;-0.30;99.90;;;;;;5017982;28;20899;-74
2023/01/20 02:48:47;;;;;;;16.90;13.50;;;-0.60;99.90;;;;;;5013658;28;20424;-75
2023/01/20 02:51:24;;;;;;;17.90;12.80;;;-0.20;99.90;;;;;;5027205;28;20431;-75
2023/01/20 02:53:54;;;;;;;14.38;12.57;;;-0.30;99.90;;;;;;5027888;28;20473;-73
2023/01/20 02:56:23;;;;;;;14.57;12.55;;;0.30;99.90;;;;;;5044029;28;20816;-74
2023/01/20 02:58:58;;;;;;;16.70;13.35;;;-0.30;99.90;;;;;;5029462;28;20438;-75
2023/01/20 03:01:33;;;;;;;16.50;13.65;;;-0.60;99.90;;;;;;5029838;28;20469;-74
2023/01/20 03:04:02;;;;;;;16.38;13.50;;;-0.80;99.90;;;;;;5030809;28;20792;-73
2023/01/20 03:06:34;;;;;;;18.45;14.57;;;-0.60;99.90;;;;;;5017123;28;20454;-74
2023/01/20 03:09:04;;;;;;;16.10;13.60;;;-0.90;99.90;;;;;;5029648;28;20442;-74
2023/01/20 03:11:35;;;;;;;17.98;14.48;;;-0.40;99.90;;;;;;5027925;28;20498;-74
2023/01/20 03:14:06;;;;;;;19.08;14.40;;;-0.50;99.90;;;;;;5025687;28;20427;-74
2023/01/20 03:16:32;;;;;;;18.73;15.27;;;-0.90;99.90;;;;;;5019000;28;20459;-75
2023/01/20 03:18:57;;;;;;;18.17;15.38;;;-0.80;99.90;;;;;;5029608;28;20438;-74
2023/01/20 03:21:23;;;;;;;21.27;16.60;;;-0.90;99.90;;;;;;5024503;28;20758;-74
2023/01/20 03:23:56;;;;;;;20.20;16.30;;;1.20;99.90;;;;;;5029759;28;20505;-75
2023/01/20 03:26:22;;;;;;;21.55;16.10;;;-0.30;99.90;;;;;;5028751;28;20463;-76
2023/01/20 03:28:49;;;;;;;22.20;16.52;;;-0.40;99.90;;;;;;5012637;28;20476;-75
2023/01/20 03:31:21;;;;;;;20.40;16.60;;;-0.20;99.90;;;;;;5025904;28;20454;-75
2023/01/20 03:33:51;;;;;;;19.20;15.80;;;-0.50;99.90;;;;;;5009946;28;20533;-75
2023/01/20 03:36:19;;;;;;;20.63;16.92;;;-0.50;99.90;;;;;;5022309;28;20998;-75
2023/01/20 03:38:45;;;;;;;18.92;16.52;;;-1.00;99.90;;;;;;5025642;28;21091;-74
2023/01/20 03:41:27;;;;;;;21.60;16.77;;;-1.00;99.90;;;;;;5027000;28;20418;-74
2023/01/20 03:44:11;;;;;;;22.35;17.08;;;-1.00;99.90;;;;;;5021424;28;21001;-74
2023/01/20 03:46:59;;;;;;;21.80;18.30;;;-0.30;99.90;;;;;;5023006;28;20468;-75
2023/01/20 03:49:32;;;;;;;22.70;17.50;;;-0.90;99.90;;;;;;5023278;28;20481;-75
2023/01/20 03:52:08;;;;;;;23.17;18.05;;;-0.90;99.90;;;;;;5019578;28;20459;-75
2023/01/20 03:54:43;;;;;;;24.20;18.60;;;-0.90;99.90;;;;;;5022448;28;20964;-75
2023/01/20 03:57:25;;;;;;;25.15;19.10;;;-0.90;99.90;;;;;;5024981;28;20486;-75
2023/01/20 03:59:51;;;;;;;25.52;19.05;;;0.10;99.90;;;;;;5042262;28;20495;-74
2023/01/20 04:02:18;;;;;;;25.10;19.02;;;-0.40;99.90;;;;;;5025346;28;20438;-73
2023/01/20 04:04:46;;;;;;;25.83;18.80;;;-0.10;99.90;;;;;;5021930;28;20518;-74
2023/01/20 04:07:18;;;;;;;24.40;19.00;;;0.00;99.90;;;;;;5017587;28;20424;-75
2023/01/20 04:09:49;;;;;;;32.03;21.40;;;-0.30;99.90;;;;;;5027518;28;20438;-75
2023/01/20 04:12:15;;;;;;;34.45;22.92;;;-0.60;99.90;;;;;;5026311;28;20435;-73
2023/01/20 04:14:40;;;;;;;39.38;23.20;;;-0.50;99.90;;;;;;5041809;28;20909;-73
2023/01/20 04:17:06;;;;;;;34.60;22.27;;;-0.40;99.90;;;;;;5023965;28;20422;-73
2023/01/20 04:19:32;;;;;;;50.15;25.23;;;0.00;99.90;;;;;;5026318;28;20505;-73
2023/01/20 04:22:06;;;;;;;53.05;24.38;;;-0.30;99.90;;;;;;5027079;28;20423;-73
2023/01/20 04:24:42;;;;;;;42.17;22.83;;;0.10;99.90;;;;;;5026861;28;20452;-76
2023/01/20 04:27:08;;;;;;;41.35;23.33;;;-0.30;99.90;;;;;;5011237;28;20466;-75
2023/01/20 04:29:34;;;;;;;42.55;24.30;;;-0.10;99.90;;;;;;5025321;28;20441;-76
2023/01/20 04:32:01;;;;;;;41.10;23.70;;;0.30;99.90;;;;;;5026348;28;20796;-76
2023/01/20 04:34:27;;;;;;;43.47;25.33;;;-0.10;99.90;;;;;;5022107;28;20515;-76
2023/01/20 04:36:53;;;;;;;45.83;24.53;;;-0.30;99.90;;;;;;5019770;28;20465;-75
2023/01/20 04:39:18;;;;;;;47.90;24.37;;;-0.20;99.90;;;;;;5020660;28;20435;-76
2023/01/20 04:41:45;;;;;;;44.80;24.67;;;0.20;99.90;;;;;;5025616;28;20426;-76
2023/01/20 04:44:11;;;;;;;36.00;22.65;;;0.40;99.90;;;;;;5019034;28;20432;-75
2023/01/20 04:46:37;;;;;;;36.70;23.50;;;0.50;99.90;;;;;;5024915;28;21069;-75
2023/01/20 04:49:02;;;;;;;42.78;23.52;;;0.50;99.90;;;;;;5020007;28;20438;-76
2023/01/20 04:51:28;;;;;;;46.57;23.57;;;0.50;99.90;;;;;;5025670;28;20539;-74
2023/01/20 04:53:58;;;;;;;48.47;21.97;;;-0.10;99.90;;;;;;5022265;28;20427;-75
2023/01/20 04:56:24;;;;;;;35.83;22.30;;;0.20;99.90;;;;;;5026540;28;20604;-76
2023/01/20 04:58:49;;;;;;;39.50;22.58;;;0.40;99.90;;;;;;5026978;28;20452;-74
2023/01/20 05:01:15;;;;;;;36.27;20.77;;;-0.20;99.90;;;;;;5027999;28;20467;-75
2023/01/20 05:03:41;;;;;;;46.87;22.80;;;0.20;99.90;;;;;;5027273;28;20423;-74
2023/01/20 05:06:07;;;;;;;82.07;27.77;;;0.50;99.90;;;;;;5025628;28;20420;-75
2023/01/20 05:08:33;;;;;;;44.10;22.37;;;-0.10;99.90;;;;;;5025557;28;20794;-74
2023/01/20 05:10:59;;;;;;;45.00;23.52;;;-0.20;99.90;;;;;;5027750;28;20418;-74
2023/01/20 05:13:24;;;;;;;41.55;23.70;;;-0.10;99.90;;;;;;5025422;28;20434;-74
2023/01/20 05:15:50;;;;;;;56.90;23.80;;;0.30;99.90;;;;;;5024007;28;20415;-75
2023/01/20 05:18:15;;;;;;;55.30;25.70;;;-0.10;99.90;;;;;;5024929;28;20431;-74
2023/01/20 05:20:44;;;;;;;69.20;26.67;;;0.10;99.90;;;;;;5026328;28;20750;-76
2023/01/20 05:23:09;;;;;;;47.83;23.67;;;0.50;99.90;;;;;;5026461;28;21277;-75
2023/01/20 05:25:35;;;;;;;54.97;23.08;;;0.30;99.90;;;;;;5026648;28;20442;-74
2023/01/20 05:28:01;;;;;;;87.78;28.02;;;-0.10;99.90;;;;;;5041064;28;20442;-75
2023/01/20 05:30:27;;;;;;;91.57;27.30;;;0.30;99.90;;;;;;5022866;28;20427;-76
2023/01/20 05:32:52;;;;;;;63.53;24.63;;;-0.10;99.90;;;;;;5026735;28;20427;-76
2023/01/20 05:35:18;;;;;;;64.70;24.43;;;0.00;99.90;;;;;;5019438;28;20820;-74
2023/01/20 05:37:44;;;;;;;55.15;25.08;;;0.60;99.90;;;;;;5025456;28;20932;-77
2023/01/20 05:40:10;;;;;;;74.45;25.75;;;-0.10;99.90;;;;;;5018266;28;20485;-75
2023/01/20 05:42:36;;;;;;;55.72;25.35;;;0.10;99.90;;;;;;5022148;28;20424;-74
2023/01/20 05:45:02;;;;;;;45.20;23.92;;;0.40;99.90;;;;;;5020773;28;20425;-73
2023/01/20 05:47:28;;;;;;;48.70;24.90;;;0.20;99.90;;;;;;5020314;28;20439;-75
2023/01/20 05:49:53;;;;;;;44.50;25.57;;;0.20;99.90;;;;;;5023565;28;20435;-75
2023/01/20 05:52:19;;;;;;;37.90;23.30;;;1.80;99.90;;;;;;5024242;28;20971;-75
2023/01/20 05:54:44;;;;;;;40.95;23.58;;;-0.20;99.90;;;;;;5025309;28;20765;-76
2023/01/20 05:57:11;;;;;;;37.60;23.52;;;0.50;99.90;;;;;;5028228;28;20423;-75
2023/01/20 05:59:36;;;;;;;40.28;23.17;;;1.50;99.90;;;;;;5024945;28;20429;-75
2023/01/20 06:02:02;;;;;;;39.27;24.20;;;0.10;99.90;;;;;;5029494;28;20423;-75
2023/01/20 06:04:27;;;;;;;40.60;23.60;;;1.20;99.90;;;;;;5029835;28;20419;-76
2023/01/20 06:06:53;;;;;;;35.33;22.85;;;0.50;99.90;;;;;;5027857;28;20527;-75
2023/01/20 06:09:19;;;;;;;37.67;24.70;;;-0.20;99.90;;;;;;5029740;28;20491;-76
2023/01/20 06:11:45;;;;;;;35.83;23.77;;;0.10;99.90;;;;;;5029388;28;20916;-75
2023/01/20 06:14:10;;;;;;;38.70;24.63;;;0.00;99.90;;;;;;5017243;28;20432;-74
2023/01/20 06:16:36;;;;;;;37.57;24.97;;;0.20;99.90;;;;;;5030117;28;20430;-77
2023/01/20 06:19:01;;;;;;;37.93;24.57;;;0.60;99.90;;;;;;5019605;28;20804;-75
2023/01/20 06:21:27;;;;;;;41.63;26.80;;;-0.10;99.90;;;;;;5030353;28;20940;-76
2023/01/20 06:23:53;;;;;;;34.03;23.40;;;0.90;99.90;;;;;;5029408;28;20800;-75
2023/01/20 06:26:19;;;;;;;39.47;24.85;;;0.00;99.90;;;;;;5020746;28;20428;-75
2023/01/20 06:28:44;;;;;;;37.88;23.80;;;0.40;99.90;;;;;;5025224;28;20458;-76
2023/01/20 06:31:15;;;;;;;41.35;25.83;;;0.00;99.90;;;;;;5026391;28;20450;-74
2023/01/20 06:33:41;;;;;;;40.17;26.33;;;-0.10;99.90;;;;;;5021720;28;20520;-77
2023/01/20 06:36:07;;;;;;;38.85;26.23;;;-0.10;99.90;;;;;;5024178;28;20572;-74
2023/01/20 06:38:34;;;;;;;42.28;26.27;;;0.00;99.90;;;;;;5018845;28;20449;-75
2023/01/20 06:41:05;;;;;;;40.83;26.07;;;1.40;99.90;;;;;;5028022;28;20439;-75
2023/01/20 06:43:38;;;;;;;43.77;26.97;;;-0.10;99.90;;;;;;5028438;28;20428;-76
2023/01/20 06:46:06;;;;;;;41.28;26.90;;;0.00;99.90;;;;;;5029036;28;25116;-76
2023/01/20 06:48:33;;;;;;;41.17;26.53;;;0.00;99.90;;;;;;5028555;28;20463;-75
2023/01/20 06:51:03;;;;;;;42.63;27.67;;;0.40;99.90;;;;;;5030027;28;20420;-75
2023/01/20 06:53:29;;;;;;;40.20;27.37;;;-0.10;99.90;;;;;;5026010;28;20490;-73
2023/01/20 06:55:55;;;;;;;47.05;29.58;;;-0.20;99.90;;;;;;5028570;28;20426;-76
2023/01/20 06:58:26;;;;;;;44.75;28.48;;;0.00;99.90;;;;;;5007445;28;20458;-74
2023/01/20 07:00:52;;;;;;;48.05;30.02;;;-0.10;99.90;;;;;;5026228;28;20460;-74
2023/01/20 07:03:18;;;;;;;47.75;30.15;;;0.20;99.90;;;;;;5028461;28;20442;-73
2023/01/20 07:05:55;;;;;;;44.50;28.70;;;0.60;99.90;;;;;;5024680;28;20432;-74
2023/01/20 07:08:21;;;;;;;48.90;32.22;;;1.00;99.90;;;;;;5010888;28;20480;-74
2023/01/20 07:10:46;;;;;;;52.55;31.05;;;0.50;99.90;;;;;;5029969;28;20427;-74
2023/01/20 07:13:12;;;;;;;50.72;31.45;;;0.00;99.90;;;;;;5029822;28;20505;-73
2023/01/20 07:15:37;;;;;;;53.63;32.63;;;0.00;99.90;;;;;;5026768;28;20430;-74
2023/01/20 07:18:03;;;;;;;49.40;32.60;;;0.60;99.90;;;;;;5028153;28;20905;-76
2023/01/20 07:20:29;;;;;;;50.27;31.87;;;0.60;99.90;;;;;;5030411;28;20463;-75
2023/01/20 07:22:54;;;;;;;51.73;33.93;;;0.70;99.90;;;;;;5027435;28;20422;-74
2023/01/20 07:25:20;;;;;;;52.37;33.50;;;1.80;99.90;;;;;;5029400;28;20453;-76
2023/01/20 07:27:46;;;;;;;54.10;34.37;;;0.60;99.90;;;;;;5028888;28;20435;-74
2023/01/20 07:30:12;;;;;;;53.37;33.77;;;0.10;99.90;;;;;;5027659;28;20433;-74
2023/01/20 07:32:37;;;;;;;54.05;34.45;;;0.00;99.90;;;;;;5029074;28;20419;-75
2023/01/20 07:35:03;;;;;;;53.03;34.60;;;0.10;99.90;;;;;;5029221;28;20426;-75
2023/01/20 07:37:29;;;;;;;51.70;34.60;;;0.10;99.90;;;;;;5024275;28;20946;-75
2023/01/20 07:39:54;;;;;;;52.03;33.93;;;0.30;99.90;;;;;;5028149;28;20929;-74
2023/01/20 07:42:20;;;;;;;51.13;34.45;;;0.70;99.90;;;;;;5026728;28;20438;-72
2023/01/20 07:44:46;;;;;;;54.75;34.08;;;0.30;99.90;;;;;;5028404;28;20465;-75
2023/01/20 07:47:11;;;;;;;49.33;32.92;;;0.10;99.90;;;;;;5027350;28;20430;-76
2023/01/20 07:49:37;;;;;;;48.63;33.35;;;0.60;99.90;;;;;;5043458;28;20520;-74
2023/01/20 07:52:03;;;;;;;51.58;33.85;;;0.20;99.90;;;;;;5027303;28;20462;-75
2023/01/20 07:54:28;;;;;;;48.47;32.67;;;0.70;99.90;;;;;;5028873;28;20465;-73
2023/01/20 07:56:54;;;;;;;51.60;34.33;;;0.30;99.90;;;;;;5028110;28;20411;-75
2023/01/20 07:59:20;;;;;;;48.50;34.03;;;0.80;99.90;;;;;;5025024;28;20446;-74
2023/01/20 08:01:45;;;;;;;53.07;34.80;;;0.80;99.90;;;;;;5026890;28;20522;-74
2023/01/20 08:04:12;;;;;;;50.87;32.57;;;0.50;99.90;;;;;;5026758;28;20909;-74
2023/01/20 08:06:37;;;;;;;50.95;34.63;;;0.30;99.90;;;;;;5027525;28;20916;-72
2023/01/20 08:09:03;;;;;;;52.73;33.60;;;2.50;99.90;;;;;;5025484;28;20434;-74
2023/01/20 08:11:31;;;;;;;47.00;32.13;;;0.70;99.90;;;;;;5026979;28;20949;-73
2023/01/20 08:13:56;;;;;;;52.60;32.92;;;1.40;99.90;;;;;;5025992;28;20442;-74
2023/01/20 08:16:22;;;;;;;43.90;32.28;;;0.40;99.90;;;;;;5027635;28;20958;-74
2023/01/20 08:18:48;;;;;;;49.83;32.20;;;0.40;99.90;;;;;;5027520;28;20456;-72
2023/01/20 08:21:23;;;;;;;49.07;32.93;;;2.40;99.90;;;;;;5028909;28;20449;-73
2023/01/20 08:23:49;;;;;;;47.15;32.55;;;0.70;99.90;;;;;;5027542;28;25118;-72
2023/01/20 08:26:15;;;;;;;50.22;32.47;;;0.40;99.90;;;;;;5027278;28;20422;-73
2023/01/20 08:28:40;;;;;;;53.70;34.43;;;0.40;99.90;;;;;;5025830;28;20423;-74
2023/01/20 08:31:15;;;;;;;50.88;32.88;;;1.00;99.90;;;;;;5042559;28;20431;-74
2023/01/20 08:33:42;;;;;;;50.85;33.28;;;1.70;99.90;;;;;;5026679;28;20418;-74
2023/01/20 08:36:15;;;;;;;53.40;33.13;;;0.60;99.90;;;;;;5026122;28;20866;-74
2023/01/20 08:38:42;;;;;;;54.83;34.30;;;1.00;99.90;;;;;;5026995;28;20461;-73
2023/01/20 08:41:20;;;;;;;54.22;34.47;;;1.10;99.90;;;;;;5023790;28;20917;-76
2023/01/20 08:43:46;;;;;;;55.35;34.00;;;1.00;99.90;;;;;;5020413;28;20490;-75
2023/01/20 08:46:14;;;;;;;56.20;36.75;;;0.40;99.90;;;;;;5024860;28;20458;-73
2023/01/20 08:48:41;;;;;;;51.47;34.80;;;1.10;99.90;;;;;;5021127;28;20988;-74
2023/01/20 08:51:10;;;;;;;53.88;34.97;;;1.10;99.90;;;;;;5024494;28;20818;-75
2023/01/20 08:53:36;;;;;;;51.13;32.60;;;0.80;99.90;;;;;;5027001;28;20441;-75
2023/01/20 08:56:03;;;;;;;52.70;34.03;;;0.60;99.90;;;;;;5027112;28;20430;-74
2023/01/20 08:58:29;;;;;;;47.72;31.98;;;1.10;99.90;;;;;;5022773;28;20922;-74
2023/01/20 09:00:54;;;;;;;51.07;33.17;;;1.10;99.90;;;;;;5023148;28;20427;-74
2023/01/20 09:03:21;;;;;;;56.40;33.00;;;1.70;99.90;;;;;;5040485;28;20782;-74
2023/01/20 09:05:47;;;;;;;60.47;36.15;;;0.70;99.90;;;;;;5023009;28;20423;-73
2023/01/20 09:08:16;;;;;;;53.92;33.60;;;1.10;99.90;;;;;;5024814;28;20433;-75
2023/01/20 09:10:42;;;;;;;50.27;32.90;;;1.10;99.90;;;;;;5025017;28;20616;-74
2023/01/20 09:13:08;;;;;;;55.10;34.78;;;1.10;99.90;;;;;;5022358;28;20408;-74
2023/01/20 09:15:34;;;;;;;57.30;35.10;;;1.10;99.90;;;;;;5040851;28;20943;-74
2023/01/20 09:18:00;;;;;;;59.95;35.53;;;1.10;99.90;;;;;;5023389;28;20460;-74
2023/01/20 09:20:27;;;;;;;62.28;36.03;;;1.10;99.90;;;;;;5025788;28;20412;-77
2023/01/20 09:22:53;;;;;;;57.40;32.97;;;0.80;99.90;;;;;;5019607;28;20428;-73
2023/01/20 09:25:19;;;;;;;59.13;35.20;;;0.70;99.90;;;;;;5018106;28;20750;-75
2023/01/20 09:27:45;;;;;;;54.60;34.03;;;0.70;99.90;;;;;;5025787;28;20600;-73
2023/01/20 09:30:11;;;;;;;54.60;33.15;;;0.70;99.90;;;;;;5026078;28;20414;-76
2023/01/20 09:32:37;;;;;;;54.70;34.08;;;1.00;99.90;;;;;;5025334;28;20426;-76
2023/01/20 09:35:03;;;;;;;49.85;32.70;;;1.20;99.90;;;;;;5026484;28;20419;-74
2023/01/20 09:46:34;;;;;;;56.67;34.65;;;1.30;99.90;;;;;;5016815;28;20451;-74
2023/01/20 09:55:20;;;;;;;55.00;31.40;;;1.40;99.90;;;;;;5018165;28;20511;-74
2023/01/20 09:57:58;;;;;;;56.15;32.80;;;1.50;99.90;;;;;;5024217;28;20931;-76
2023/01/20 10:00:28;;;;;;;56.78;32.70;;;2.80;99.90;;;;;;5006377;28;25102;-74
2023/01/20 10:03:10;;;;;;;56.63;32.40;;;0.80;99.90;;;;;;5022365;28;20451;-76
2023/01/20 10:05:38;;;;;;;58.83;34.30;;;0.90;99.90;;;;;;5023828;28;20422;-76
2023/01/20 10:08:19;;;;;;;55.53;33.08;;;1.50;99.90;;;;;;5025207;28;20545;-74
2023/01/20 10:10:54;;;;;;;56.30;32.35;;;1.40;99.90;;;;;;5006743;28;20502;-74
2023/01/20 10:13:32;;;;;;;51.88;30.00;;;2.30;99.90;;;;;;5022502;28;25100;-73
2023/01/20 10:16:01;;;;;;;53.42;33.03;;;0.90;99.90;;;;;;5025902;28;20881;-74
2023/01/20 10:18:43;;;;;;;51.95;31.73;;;1.50;99.90;;;;;;5024117;28;20925;-77
2023/01/20 10:21:35;;;;;;;50.72;30.80;;;1.10;99.90;;;;;;5016899;28;25109;-73
2023/01/20 10:24:31;;;;;;;54.33;31.40;;;1.30;99.90;;;;;;5025581;28;20489;-74
2023/01/20 10:27:03;;;;;;;49.87;30.77;;;1.60;99.90;;;;;;4999488;28;20795;-75
2023/01/20 10:29:38;;;;;;;51.92;29.80;;;1.70;99.90;;;;;;5025294;28;20423;-75
2023/01/20 10:32:36;;;;;;;48.58;30.63;;;1.30;99.90;;;;;;5024402;28;20444;-75
2023/01/20 10:35:20;;;;;;;50.97;31.90;;;1.40;99.90;;;;;;5024116;28;20921;-75
2023/01/20 10:37:45;;;;;;;45.58;29.23;;;1.30;99.90;;;;;;5022500;28;25102;-75
2023/01/20 10:40:20;;;;;;;46.17;30.63;;;1.60;99.90;;;;;;5016508;28;20428;-74
2023/01/20 10:42:56;;;;;;;49.80;30.67;;;1.60;99.90;;;;;;5021248;28;25098;-74
2023/01/20 10:45:32;;;;;;;47.78;30.35;;;1.80;99.90;;;;;;5027934;28;25098;-75
2023/01/20 10:48:13;;;;;;;43.70;29.15;;;2.60;99.90;;;;;;5005262;28;20540;-75
2023/01/20 10:50:51;;;;;;;49.58;31.27;;;1.60;99.90;;;;;;5025335;28;25103;-74
2023/01/20 10:53:41;;;;;;;46.80;30.60;;;1.80;99.90;;;;;;5026198;28;20915;-75
2023/01/20 10:56:19;;;;;;;47.60;29.98;;;1.90;99.90;;;;;;5026115;28;20510;-75
2023/01/20 10:58:46;;;;;;;48.72;28.90;;;1.70;99.90;;;;;;5026252;28;25104;-76
2023/01/20 11:01:17;;;;;;;49.55;30.50;;;1.20;99.90;;;;;;5017531;28;20536;-75
2023/01/20 11:03:46;;;;;;;44.85;29.42;;;1.40;99.90;;;;;;5024970;28;20514;-74
2023/01/20 11:06:19;;;;;;;46.03;29.70;;;1.30;99.90;;;;;;5028524;28;20486;-76
2023/01/20 11:08:47;;;;;;;49.13;30.10;;;1.30;99.90;;;;;;5028937;28;20927;-75
2023/01/20 11:11:22;;;;;;;43.17;27.77;;;1.60;99.90;;;;;;5030000;28;20419;-74
2023/01/20 11:13:52;;;;;;;45.50;28.23;;;1.40;99.90;;;;;;5042928;28;20581;-74
2023/01/20 11:16:27;;;;;;;45.50;28.15;;;1.50;99.90;;;;;;5029411;28;20392;-74
2023/01/20 11:19:01;;;;;;;41.28;27.55;;;1.40;99.90;;;;;;5028372;28;25097;-74
2023/01/20 11:21:30;;;;;;;40.97;27.30;;;1.40;99.90;;;;;;5017574;28;20420;-74
2023/01/20 11:23:57;;;;;;;40.85;25.83;;;1.30;99.90;;;;;;5012465;28;20583;-75
2023/01/20 11:26:24;;;;;;;44.53;27.03;;;1.40;99.90;;;;;;5014543;28;20423;-74
2023/01/20 11:28:58;;;;;;;39.60;26.70;;;1.90;99.90;;;;;;5024557;28;20442;-75
2023/01/20 11:31:39;;;;;;;41.03;26.10;;;2.00;99.90;;;;;;5026917;28;20423;-74
2023/01/20 11:34:24;;;;;;;37.60;24.58;;;1.50;99.90;;;;;;5020442;28;20944;-76
2023/01/20 11:37:14;;;;;;;36.13;23.35;;;1.80;99.90;;;;;;5027901;28;20431;-74
2023/01/20 11:40:00;;;;;;;38.50;23.67;;;1.60;99.90;;;;;;5029037;28;20454;-74
2023/01/20 11:42:51;;;;;;;39.13;25.45;;;1.40;99.90;;;;;;5026611;28;20520;-75
2023/01/20 11:45:29;;;;;;;36.10;24.30;;;1.80;99.90;;;;;;5024874;28;20459;-75
2023/01/20 11:48:01;;;;;;;37.37;25.10;;;1.70;99.90;;;;;;5026969;28;20943;-74
2023/01/20 11:50:34;;;;;;;37.42;23.80;;;1.60;99.90;;;;;;5025952;28;20437;-75
2023/01/20 11:53:24;;;;;;;35.80;23.90;;;1.80;99.90;;;;;;5025657;28;20501;-74
2023/01/20 11:55:51;;;;;;;33.30;22.45;;;1.70;99.90;;;;;;5005992;28;20508;-74
2023/01/20 11:58:19;;;;;;;34.35;22.17;;;1.80;99.90;;;;;;5025981;28;20433;-75
2023/01/20 12:00:45;;;;;;;35.45;23.10;;;1.90;99.90;;;;;;5027117;28;21110;-75
2023/01/20 12:03:49;;;;;;;35.03;23.52;;;1.70;99.90;;;;;;5025844;28;20828;-74
2023/01/20 12:06:28;;;;;;;33.63;21.88;;;1.90;99.90;;;;;;5027253;28;20427;-75
2023/01/20 12:09:14;;;;;;;34.15;23.25;;;1.80;99.90;;;;;;5026064;28;20789;-74
2023/01/20 12:12:03;;;;;;;34.20;21.92;;;1.80;99.90;;;;;;5037851;28;20450;-74
2023/01/20 12:14:39;;;;;;;33.83;22.23;;;1.60;99.90;;;;;;5026970;28;20480;-74
2023/01/20 12:17:07;;;;;;;32.45;21.95;;;1.80;99.90;;;;;;5026593;28;20790;-75
2023/01/20 12:20:02;;;;;;;27.55;18.73;;;1.60;99.90;;;;;;5024999;28;20440;-75
2023/01/20 12:22:53;;;;;;;29.50;20.05;;;1.50;99.90;;;;;;5020608;28;20909;-74
2023/01/20 12:25:20;;;;;;;29.73;20.52;;;1.40;99.90;;;;;;5025726;28;20438;-74
2023/01/20 12:27:50;;;;;;;30.73;20.70;;;1.90;99.90;;;;;;5041240;28;20462;-76
2023/01/20 12:30:41;;;;;;;31.30;21.55;;;1.90;99.90;;;;;;5025777;28;20453;-76
2023/01/20 12:33:24;;;;;;;30.15;19.70;;;1.80;99.90;;;;;;5026511;28;20457;-74
2023/01/20 12:36:03;;;;;;;33.63;21.85;;;1.60;99.90;;;;;;5024786;28;20427;-74
2023/01/20 12:38:39;;;;;;;30.27;19.38;;;1.70;99.90;;;;;;5026876;28;20507;-75
2023/01/20 12:41:14;;;;;;;29.75;20.20;;;1.90;99.90;;;;;;5025481;28;20429;-75
2023/01/20 12:43:54;;;;;;;35.15;21.88;;;1.90;99.90;;;;;;5016663;28;20442;-75
2023/01/20 12:46:28;;;;;;;31.08;20.33;;;1.50;99.90;;;;;;5020575;28;20437;-76
2023/01/20 12:49:50;;;;;;;32.10;20.27;;;1.50;99.90;;;;;;5026671;28;20763;-75
2023/01/20 12:52:57;;;;;;;33.67;21.40;;;1.90;99.90;;;;;;5009847;28;20491;-74
2023/01/20 12:55:55;;;;;;;32.15;22.38;;;1.90;99.90;;;;;;4986891;28;20434;-73
2023/01/20 12:58:30;;;;;;;31.92;20.02;;;1.90;99.90;;;;;;5038038;28;21196;-74
2023/01/20 13:01:16;;;;;;;35.92;24.38;;;1.80;99.90;;;;;;5025098;28;20461;-73
2023/01/20 13:03:57;;;;;;;35.13;24.60;;;1.80;99.90;;;;;;5025577;28;20506;-73
2023/01/20 13:06:32;;;;;;;37.60;25.02;;;1.80;99.90;;;;;;5025185;28;20434;-74
2023/01/20 13:09:23;;;;;;;34.47;23.25;;;1.60;99.90;;;;;;5025728;28;20477;-74